Time;durP1;ratioP1;P1;durP2;ratioP2;P2;SDS_P1;SDS_P2;PMS_P1;PMS_P2;Temp;Humidity;BMP_temperature;BMP_pressure;BME280_temperature;BME280_humidity;BME280_pressure;Samples;Min_cycle;Max_cycle;Signal;HPM_P1;HPM_P2
2023/04/26 04:32:31;;;;;;;16.50;5.90;;;11.90;71.00;;;;;;4868381;29;20053;-77
2023/04/26 04:34:58;;;;;;;9.38;4.75;;;12.00;71.00;;;;;;4859288;29;20037;-79
2023/04/26 04:37:24;;;;;;;9.82;5.57;;;11.90;71.00;;;;;;4885910;29;20064;-77
2023/04/26 04:39:51;;;;;;;12.02;5.35;;;12.00;71.00;;;;;;4900455;29;20119;-77
2023/04/26 04:42:17;;;;;;;10.48;5.53;;;12.00;71.00;;;;;;4899268;29;20021;-77
2023/04/26 04:44:44;;;;;;;9.85;5.70;;;11.90;71.00;;;;;;4863293;29;20501;-77
2023/04/26 04:47:10;;;;;;;8.63;5.00;;;12.00;71.10;;;;;;4863010;29;20029;-77
2023/04/26 04:49:36;;;;;;;11.63;5.55;;;11.90;71.10;;;;;;4874157;29;20056;-78
2023/04/26 04:52:02;;;;;;;10.15;5.20;;;12.00;71.10;;;;;;4864743;29;20037;-77
2023/04/26 04:54:28;;;;;;;8.00;5.32;;;11.90;71.30;;;;;;4865018;29;20457;-77
2023/04/26 04:56:53;;;;;;;7.65;5.60;;;11.90;71.50;;;;;;4881488;29;20033;-76
2023/04/26 04:59:19;;;;;;;11.05;5.32;;;11.90;72.00;;;;;;4863600;29;20082;-81
2023/04/26 05:01:44;;;;;;;9.68;4.93;;;11.90;71.70;;;;;;4867334;29;20153;-82
2023/04/26 05:04:10;;;;;;;11.15;6.00;;;12.00;71.70;;;;;;4877867;29;20078;-83
2023/04/26 05:06:36;;;;;;;9.20;4.75;;;11.90;71.80;;;;;;4885253;29;20105;-86
2023/04/26 05:09:04;;;;;;;9.93;6.38;;;12.00;71.90;;;;;;4865059;29;20634;-79
2023/04/26 05:11:31;;;;;;;8.90;5.05;;;11.90;71.90;;;;;;4876688;29;20033;-84
2023/04/26 05:13:56;;;;;;;9.45;5.80;;;12.00;71.70;;;;;;4868725;29;20053;-79
2023/04/26 05:16:22;;;;;;;10.02;5.35;;;12.00;71.60;;;;;;4872872;29;20483;-83
2023/04/26 05:18:48;;;;;;;13.43;5.65;;;12.00;71.50;;;;;;4867201;29;20132;-87
2023/04/26 05:21:13;;;;;;;11.07;5.90;;;12.00;71.40;;;;;;4867559;29;20040;-79
2023/04/26 05:23:39;;;;;;;10.27;5.80;;;12.00;71.30;;;;;;4867582;29;20392;-82
2023/04/26 05:26:05;;;;;;;13.35;6.65;;;11.90;71.50;;;;;;4885143;29;20037;-82
2023/04/26 05:28:31;;;;;;;13.90;7.30;;;11.90;71.70;;;;;;4864152;29;20074;-79
2023/04/26 05:30:58;;;;;;;9.98;6.13;;;11.90;71.60;;;;;;4866381;29;20521;-79
2023/04/26 05:33:24;;;;;;;10.52;6.13;;;11.90;71.70;;;;;;4857537;29;20033;-79
2023/04/26 05:35:51;;;;;;;10.00;6.15;;;11.90;71.60;;;;;;4865030;29;20033;-79
2023/04/26 05:38:17;;;;;;;13.68;6.28;;;11.90;71.60;;;;;;4884770;29;20514;-79
2023/04/26 05:40:42;;;;;;;18.10;6.97;;;12.00;71.50;;;;;;4884963;29;20087;-79
2023/04/26 05:43:08;;;;;;;11.30;5.55;;;11.90;71.40;;;;;;4868136;29;20025;-83
2023/04/26 05:45:34;;;;;;;11.93;7.03;;;11.90;71.60;;;;;;4881184;29;20029;-79
2023/04/26 05:48:00;;;;;;;12.32;5.50;;;11.90;72.00;;;;;;4849665;29;20026;-81
2023/04/26 05:50:25;;;;;;;9.73;5.53;;;11.90;72.70;;;;;;4865879;29;20037;-81
2023/04/26 05:52:51;;;;;;;12.35;6.20;;;11.80;73.50;;;;;;4865881;29;20089;-81
2023/04/26 05:55:18;;;;;;;9.95;6.05;;;11.80;74.30;;;;;;4865647;29;20486;-81
2023/04/26 05:57:44;;;;;;;18.33;6.60;;;11.70;75.10;;;;;;4865944;29;20082;-81
2023/04/26 06:00:11;;;;;;;10.38;6.32;;;11.60;75.70;;;;;;4863799;29;20033;-82
2023/04/26 06:02:37;;;;;;;12.93;6.38;;;11.70;75.80;;;;;;4865499;29;20127;-82
2023/04/26 06:05:04;;;;;;;21.42;8.02;;;11.70;75.80;;;;;;4872674;29;20025;-81
2023/04/26 06:07:30;;;;;;;11.63;6.82;;;11.70;76.00;;;;;;4867951;29;20099;-81
2023/04/26 06:09:55;;;;;;;12.20;7.00;;;11.60;76.40;;;;;;4875471;29;20041;-81
2023/04/26 06:12:21;;;;;;;15.60;8.68;;;11.60;76.80;;;;;;4883874;29;20036;-81
2023/04/26 06:14:47;;;;;;;12.55;6.53;;;11.50;77.00;;;;;;4885958;29;20102;-81
2023/04/26 06:17:13;;;;;;;16.50;8.23;;;11.50;77.20;;;;;;4865567;29;20030;-82
2023/04/26 06:19:38;;;;;;;14.32;7.68;;;11.50;77.40;;;;;;4849152;29;20037;-82
2023/04/26 06:22:04;;;;;;;15.52;7.65;;;11.50;77.70;;;;;;4865613;29;20022;-82
2023/04/26 06:24:30;;;;;;;13.48;7.28;;;11.50;77.90;;;;;;4895597;29;20029;-82
2023/04/26 06:26:55;;;;;;;13.30;7.82;;;11.50;78.00;;;;;;4885985;29;20028;-82
2023/04/26 06:29:21;;;;;;;18.05;8.13;;;11.50;77.80;;;;;;4902802;29;20037;-81
2023/04/26 06:31:47;;;;;;;9.98;5.85;;;11.50;78.20;;;;;;4888338;29;20054;-82
2023/04/26 06:34:12;;;;;;;13.52;7.63;;;11.50;78.20;;;;;;4879360;29;20575;-82
2023/04/26 06:36:38;;;;;;;12.77;5.85;;;11.60;78.10;;;;;;4883760;29;20116;-82
2023/04/26 06:39:03;;;;;;;13.07;6.60;;;11.50;78.20;;;;;;4883905;29;20057;-82
2023/04/26 06:41:30;;;;;;;11.48;7.75;;;11.50;78.30;;;;;;4879543;29;20066;-82
2023/04/26 06:43:55;;;;;;;11.10;7.18;;;11.50;78.50;;;;;;4881509;29;20401;-81
2023/04/26 06:46:21;;;;;;;10.55;5.75;;;11.50;78.60;;;;;;4881950;29;20029;-82
2023/04/26 06:48:46;;;;;;;10.52;5.68;;;11.50;78.60;;;;;;4885619;29;20025;-82
2023/04/26 06:51:12;;;;;;;16.25;6.53;;;11.60;78.70;;;;;;4869666;29;20076;-82
2023/04/26 06:53:38;;;;;;;14.50;6.63;;;11.60;78.70;;;;;;4865012;29;20022;-82
2023/04/26 06:56:04;;;;;;;10.80;7.25;;;11.50;79.00;;;;;;4865112;29;20041;-82
2023/04/26 06:58:29;;;;;;;13.25;5.97;;;11.60;79.00;;;;;;4864955;29;20039;-82
2023/04/26 07:00:55;;;;;;;16.40;6.90;;;11.60;79.20;;;;;;4864883;29;20025;-82
2023/04/26 07:03:21;;;;;;;16.05;6.00;;;11.60;79.00;;;;;;4864672;29;20030;-82
2023/04/26 07:05:47;;;;;;;12.82;7.47;;;11.70;79.00;;;;;;4874745;29;20029;-81
2023/04/26 07:08:13;;;;;;;11.77;5.82;;;11.80;78.80;;;;;;4864892;29;20066;-82
2023/04/26 07:10:40;;;;;;;11.77;6.88;;;11.70;79.00;;;;;;4868784;29;20037;-82
2023/04/26 07:13:05;;;;;;;12.20;6.18;;;11.80;78.80;;;;;;4883315;29;20033;-82
2023/04/26 07:15:31;;;;;;;13.63;6.25;;;11.80;78.70;;;;;;4874093;29;20040;-82
2023/04/26 07:17:57;;;;;;;13.40;6.10;;;11.80;78.70;;;;;;4864689;29;20416;-82
2023/04/26 07:20:23;;;;;;;11.50;6.47;;;11.80;78.80;;;;;;4864355;29;20028;-83
2023/04/26 07:22:49;;;;;;;13.32;6.93;;;11.90;78.30;;;;;;4864310;29;20509;-81
2023/04/26 07:25:16;;;;;;;10.45;6.03;;;11.90;77.90;;;;;;4862686;29;20029;-81
2023/04/26 07:27:41;;;;;;;12.23;5.63;;;12.00;78.20;;;;;;4864577;29;20029;-82
2023/04/26 07:30:09;;;;;;;13.38;7.20;;;12.00;78.10;;;;;;4863977;29;20036;-82
2023/04/26 07:32:35;;;;;;;8.73;5.45;;;12.00;77.80;;;;;;4865669;29;20033;-81
2023/04/26 07:35:03;;;;;;;12.15;6.65;;;12.00;78.10;;;;;;4880419;29;20064;-81
2023/04/26 07:37:29;;;;;;;12.90;6.32;;;11.90;78.10;;;;;;4866059;29;20093;-82
2023/04/26 07:39:54;;;;;;;13.93;6.43;;;12.00;78.20;;;;;;4870064;29;20029;-81
2023/04/26 07:42:20;;;;;;;12.95;6.68;;;12.10;77.90;;;;;;4864230;29;20026;-81
2023/04/26 07:44:47;;;;;;;12.13;6.15;;;12.00;77.50;;;;;;4863838;29;20033;-82
2023/04/26 07:47:13;;;;;;;11.95;6.38;;;12.10;77.50;;;;;;4864078;29;20029;-82
2023/04/26 07:49:39;;;;;;;10.48;6.07;;;12.20;77.50;;;;;;4864142;29;20033;-82
2023/04/26 07:52:05;;;;;;;11.07;5.72;;;12.20;77.30;;;;;;4873576;29;20043;-82
2023/04/26 07:54:30;;;;;;;12.55;6.10;;;12.30;77.20;;;;;;4881451;29;20037;-80
2023/04/26 07:56:56;;;;;;;14.20;6.60;;;12.30;77.00;;;;;;4863044;29;20037;-80
2023/04/26 07:59:22;;;;;;;8.30;5.85;;;12.30;77.30;;;;;;4881170;29;20029;-79
2023/04/26 08:01:49;;;;;;;12.15;6.03;;;12.40;77.40;;;;;;4879059;29;20025;-81
2023/04/26 08:04:14;;;;;;;9.57;5.13;;;12.30;76.90;;;;;;4881225;29;20362;-81
2023/04/26 08:06:43;;;;;;;10.27;6.80;;;12.30;77.00;;;;;;4880274;29;20033;-79
2023/04/26 08:09:10;;;;;;;9.80;5.35;;;12.30;76.80;;;;;;4878730;29;20105;-79
2023/04/26 08:11:36;;;;;;;12.80;6.00;;;12.30;77.20;;;;;;4883560;29;20029;-80
2023/04/26 08:14:02;;;;;;;12.20;6.43;;;12.30;77.20;;;;;;4865757;29;20507;-82
2023/04/26 08:16:27;;;;;;;13.50;6.07;;;12.40;77.10;;;;;;4863112;29;20088;-78
2023/04/26 08:18:54;;;;;;;10.35;5.57;;;12.40;76.80;;;;;;4881048;29;20029;-80
2023/04/26 08:21:20;;;;;;;10.60;6.03;;;12.50;76.90;;;;;;4864020;29;20037;-81
2023/04/26 08:23:45;;;;;;;10.23;5.18;;;12.50;76.60;;;;;;4879589;29;20039;-81
2023/04/26 08:26:11;;;;;;;7.63;5.10;;;12.50;76.60;;;;;;4866292;29;20040;-81
2023/04/26 08:28:37;;;;;;;9.40;5.75;;;12.50;76.50;;;;;;4876406;29;20063;-81
2023/04/26 08:31:03;;;;;;;10.88;4.75;;;12.50;76.60;;;;;;4869545;29;20099;-81
2023/04/26 08:33:29;;;;;;;9.48;5.55;;;12.40;76.60;;;;;;4880666;29;20106;-80
2023/04/26 08:35:55;;;;;;;9.18;5.95;;;12.40;76.70;;;;;;4876347;29;20104;-80
2023/04/26 08:38:21;;;;;;;11.20;5.15;;;12.50;76.80;;;;;;4880380;29;20025;-81
2023/04/26 08:40:47;;;;;;;9.02;5.22;;;12.50;76.80;;;;;;4884072;29;20025;-81
2023/04/26 08:43:16;;;;;;;8.90;4.60;;;12.60;76.80;;;;;;4876073;29;20060;-81
2023/04/26 08:45:45;;;;;;;12.05;5.70;;;12.70;76.60;;;;;;4880771;29;20025;-82
2023/04/26 08:48:14;;;;;;;8.73;5.17;;;12.80;76.30;;;;;;4880789;29;20394;-81
2023/04/26 08:50:42;;;;;;;11.23;4.95;;;12.80;76.20;;;;;;4880706;29;20029;-81
2023/04/26 08:53:08;;;;;;;9.55;6.22;;;12.80;76.00;;;;;;4879854;29;20048;-81
2023/04/26 08:55:35;;;;;;;10.68;5.95;;;12.70;76.50;;;;;;4880696;29;20109;-81
2023/04/26 08:58:01;;;;;;;10.15;5.90;;;12.80;76.50;;;;;;4878316;29;20025;-81
2023/04/26 09:00:28;;;;;;;10.93;5.93;;;12.70;76.40;;;;;;4879908;29;20124;-81
2023/04/26 09:02:53;;;;;;;11.65;5.65;;;12.80;76.50;;;;;;4880094;29;20515;-81
2023/04/26 09:05:23;;;;;;;10.52;5.18;;;12.80;76.60;;;;;;4881245;29;20025;-81
2023/04/26 09:07:50;;;;;;;9.85;6.03;;;12.80;76.30;;;;;;4881386;29;20037;-80
2023/04/26 09:10:20;;;;;;;11.23;6.40;;;12.80;76.30;;;;;;4878311;29;20040;-80
2023/04/26 09:12:50;;;;;;;10.40;5.28;;;12.80;76.40;;;;;;4878666;29;20040;-81
2023/04/26 09:15:16;;;;;;;15.60;5.82;;;12.80;76.70;;;;;;4877796;29;20140;-80
2023/04/26 09:17:42;;;;;;;10.07;6.05;;;12.90;76.50;;;;;;4879348;29;20053;-80
2023/04/26 09:20:17;;;;;;;11.52;6.30;;;12.90;76.20;;;;;;4878698;29;20021;-81
2023/04/26 09:22:42;;;;;;;10.65;5.90;;;13.00;76.10;;;;;;4880500;29;20400;-80
2023/04/26 09:25:08;;;;;;;19.58;6.93;;;13.10;76.10;;;;;;4879363;29;20028;-81
2023/04/26 09:27:38;;;;;;;8.68;5.75;;;13.10;75.90;;;;;;4880543;29;20085;-80
2023/04/26 09:30:11;;;;;;;11.90;6.63;;;13.20;75.80;;;;;;4875650;29;20036;-80
2023/04/26 09:32:58;;;;;;;11.00;5.75;;;13.20;76.10;;;;;;4878852;29;20045;-80
2023/04/26 09:35:38;;;;;;;10.70;6.07;;;13.20;76.50;;;;;;4878281;29;20036;-80
2023/04/26 09:38:15;;;;;;;7.55;4.65;;;13.20;76.60;;;;;;4878407;29;20029;-80
2023/04/26 09:40:50;;;;;;;8.73;5.82;;;13.30;76.60;;;;;;4880974;29;20509;-81
2023/04/26 09:43:16;;;;;;;9.88;5.53;;;13.40;76.80;;;;;;4881063;29;20025;-81
2023/04/26 09:45:49;;;;;;;8.75;5.88;;;13.50;76.80;;;;;;4880806;29;20030;-82
2023/04/26 09:48:27;;;;;;;10.25;6.22;;;13.50;76.80;;;;;;4879669;29;20040;-80
2023/04/26 09:50:55;;;;;;;12.10;6.47;;;13.70;76.70;;;;;;4882938;29;20512;-80
2023/04/26 09:53:33;;;;;;;12.07;5.95;;;13.80;76.30;;;;;;4884203;29;20108;-80
2023/04/26 09:56:12;;;;;;;10.10;6.10;;;13.80;76.70;;;;;;4881617;29;20025;-80
2023/04/26 09:59:04;;;;;;;10.55;6.30;;;13.80;76.90;;;;;;4884286;29;20064;-80
2023/04/26 10:01:30;;;;;;;12.00;6.55;;;13.80;76.40;;;;;;4882381;29;20021;-81
2023/04/26 10:04:03;;;;;;;7.15;5.35;;;13.80;76.90;;;;;;4882288;29;20116;-81
2023/04/26 10:06:29;;;;;;;10.38;5.90;;;13.80;76.90;;;;;;4885716;29;20090;-80
2023/04/26 10:08:55;;;;;;;9.75;6.30;;;13.80;76.90;;;;;;4886880;29;20033;-81
2023/04/26 10:11:22;;;;;;;13.07;6.97;;;13.90;76.60;;;;;;4883510;29;20052;-81
2023/04/26 10:13:50;;;;;;;10.57;5.82;;;14.00;76.20;;;;;;4882252;29;20032;-81
2023/04/26 10:16:16;;;;;;;9.55;5.47;;;14.10;76.10;;;;;;4882177;29;20112;-80
2023/04/26 10:18:41;;;;;;;9.95;6.18;;;14.20;75.50;;;;;;4882399;29;20093;-81
2023/04/26 10:21:23;;;;;;;11.02;6.10;;;14.30;75.00;;;;;;4882275;29;20108;-81
2023/04/26 10:23:49;;;;;;;8.70;5.47;;;14.40;74.80;;;;;;4883303;29;20036;-80
2023/04/26 10:26:54;;;;;;;10.38;6.40;;;14.40;74.60;;;;;;4881365;29;20025;-80
2023/04/26 10:29:21;;;;;;;11.55;5.72;;;14.50;75.00;;;;;;4882059;29;20059;-81
2023/04/26 10:32:04;;;;;;;12.73;6.28;;;14.60;74.60;;;;;;4882065;29;20644;-80
2023/04/26 10:34:32;;;;;;;12.95;6.20;;;14.50;74.20;;;;;;4878936;29;20040;-80
2023/04/26 10:37:07;;;;;;;8.30;5.65;;;14.50;74.50;;;;;;4886760;29;20036;-80
2023/04/26 10:39:33;;;;;;;11.18;6.22;;;14.70;74.30;;;;;;4881055;29;20025;-80
2023/04/26 10:42:22;;;;;;;11.38;6.60;;;14.70;74.10;;;;;;4882452;29;20024;-80
2023/04/26 10:44:48;;;;;;;12.57;7.18;;;14.90;73.70;;;;;;4880821;29;20397;-80
2023/04/26 10:47:40;;;;;;;8.80;5.53;;;14.90;73.10;;;;;;4884737;29;20057;-80
2023/04/26 10:50:08;;;;;;;9.40;5.15;;;15.00;73.50;;;;;;4876310;29;20046;-81
2023/04/26 10:52:57;;;;;;;8.63;5.45;;;15.00;73.40;;;;;;4875710;29;20062;-81
2023/04/26 10:55:40;;;;;;;9.65;5.25;;;15.00;73.50;;;;;;4877583;29;20532;-83
2023/04/26 10:58:25;;;;;;;10.77;5.10;;;14.90;73.40;;;;;;4876873;29;20041;-84
2023/04/26 11:01:16;;;;;;;9.38;5.60;;;14.80;74.10;;;;;;4877691;29;20615;-80
2023/04/26 11:03:57;;;;;;;9.93;6.85;;;14.90;74.00;;;;;;4875831;29;20029;-79
2023/04/26 11:06:23;;;;;;;11.80;6.03;;;14.70;74.20;;;;;;4874713;29;20025;-78
2023/04/26 11:08:50;;;;;;;8.80;5.75;;;14.90;74.40;;;;;;4872050;29;20022;-80
2023/04/26 11:11:18;;;;;;;12.20;5.75;;;15.20;73.80;;;;;;4879088;29;20029;-81
2023/04/26 11:13:45;;;;;;;8.73;5.47;;;15.40;73.30;;;;;;4880822;29;20029;-83
2023/04/26 11:16:13;;;;;;;7.35;5.03;;;15.60;72.70;;;;;;4880703;29;20037;-82
2023/04/26 11:18:41;;;;;;;9.88;5.95;;;15.80;72.30;;;;;;4880606;29;20044;-82
2023/04/26 11:21:07;;;;;;;8.05;5.15;;;15.90;72.00;;;;;;4880713;29;20033;-83
2023/04/26 11:23:35;;;;;;;7.18;5.18;;;16.10;71.50;;;;;;4881578;29;20044;-81
2023/04/26 11:26:02;;;;;;;6.53;5.35;;;16.10;71.50;;;;;;4872591;29;20038;-82
2023/04/26 11:28:30;;;;;;;9.30;4.97;;;15.90;71.00;;;;;;4879434;29;20037;-84
2023/04/26 11:30:56;;;;;;;9.65;5.82;;;16.00;71.80;;;;;;4878607;29;20049;-82
2023/04/26 11:33:22;;;;;;;12.93;7.45;;;15.90;71.20;;;;;;4880125;29;20035;-81
2023/04/26 11:35:49;;;;;;;12.80;6.15;;;15.90;71.10;;;;;;4878435;29;20025;-82
2023/04/26 11:38:15;;;;;;;9.32;6.13;;;15.80;71.60;;;;;;4876928;29;20037;-79
2023/04/26 11:40:40;;;;;;;12.10;6.53;;;15.80;71.90;;;;;;4871681;29;20032;-79
2023/04/26 11:43:08;;;;;;;9.57;6.18;;;16.00;71.60;;;;;;4862478;29;20049;-79
2023/04/26 11:45:37;;;;;;;11.18;6.53;;;16.10;71.50;;;;;;4864040;29;20029;-79
2023/04/26 11:48:06;;;;;;;10.10;5.82;;;16.10;71.20;;;;;;4877797;29;20037;-79
2023/04/26 11:50:35;;;;;;;9.65;6.53;;;16.00;71.50;;;;;;4876395;29;20037;-79
2023/04/26 11:53:04;;;;;;;8.47;5.20;;;15.80;71.50;;;;;;4879526;29;20164;-79
2023/04/26 11:55:32;;;;;;;10.20;6.53;;;15.80;71.90;;;;;;4880098;29;20123;-79
2023/04/26 11:57:58;;;;;;;8.00;5.47;;;16.00;72.10;;;;;;4882411;29;20040;-79
2023/04/26 12:00:24;;;;;;;7.32;4.93;;;16.00;71.80;;;;;;4882417;29;20044;-79
2023/04/26 12:02:51;;;;;;;9.75;5.70;;;16.00;72.20;;;;;;4882198;29;20050;-79
2023/04/26 12:05:29;;;;;;;7.13;5.25;;;16.00;72.10;;;;;;4881164;29;20393;-79
2023/04/26 12:07:56;;;;;;;11.70;5.78;;;15.90;72.00;;;;;;4882044;29;20454;-79
2023/04/26 12:10:38;;;;;;;7.75;5.03;;;15.80;72.30;;;;;;4879150;29;20033;-79
2023/04/26 12:13:04;;;;;;;9.93;5.78;;;15.90;72.50;;;;;;4881656;29;20032;-79
2023/04/26 12:15:31;;;;;;;9.20;5.13;;;16.10;72.20;;;;;;4880777;29;20044;-79
2023/04/26 12:18:04;;;;;;;7.57;5.03;;;16.10;72.20;;;;;;4879020;29;20035;-79
2023/04/26 12:20:32;;;;;;;13.75;6.85;;;16.30;72.20;;;;;;4880773;29;20113;-79
2023/04/26 12:23:04;;;;;;;6.57;4.97;;;16.30;71.00;;;;;;4881906;29;20021;-79
2023/04/26 12:25:32;;;;;;;6.07;4.82;;;16.50;71.10;;;;;;4880324;29;20036;-79
2023/04/26 12:27:58;;;;;;;6.80;4.70;;;16.60;71.10;;;;;;4881333;29;20523;-79
2023/04/26 12:30:25;;;;;;;6.25;4.60;;;16.80;70.80;;;;;;4881479;29;20032;-79
2023/04/26 12:32:50;;;;;;;7.72;4.20;;;16.80;70.10;;;;;;4864962;29;20119;-79
2023/04/26 12:35:16;;;;;;;6.22;4.47;;;16.80;70.20;;;;;;4882226;29;20063;-78
2023/04/26 12:37:41;;;;;;;7.88;4.88;;;16.60;70.20;;;;;;4863801;29;20544;-79
2023/04/26 12:40:08;;;;;;;9.60;5.65;;;16.50;70.40;;;;;;4881699;29;20605;-79
2023/04/26 12:42:34;;;;;;;8.50;4.97;;;16.30;70.80;;;;;;4864931;29;20029;-79
2023/04/26 12:45:00;;;;;;;6.75;4.32;;;16.30;71.30;;;;;;4863760;29;20105;-79
2023/04/26 12:47:25;;;;;;;9.88;5.38;;;16.20;71.40;;;;;;4866025;29;20064;-78
2023/04/26 12:49:51;;;;;;;9.38;4.85;;;16.20;71.50;;;;;;4881579;29;20068;-79
2023/04/26 12:52:17;;;;;;;6.15;4.28;;;16.20;71.70;;;;;;4864169;29;20025;-79
2023/04/26 12:54:43;;;;;;;8.65;4.47;;;16.20;71.50;;;;;;4863804;29;20041;-79
2023/04/26 12:57:09;;;;;;;7.00;4.05;;;16.40;71.70;;;;;;4881461;29;20056;-79
2023/04/26 12:59:35;;;;;;;6.57;4.35;;;16.70;70.80;;;;;;4864601;29;20488;-79
2023/04/26 13:02:02;;;;;;;8.93;4.78;;;16.90;70.60;;;;;;4864541;29;20505;-79
2023/04/26 13:04:28;;;;;;;7.80;5.35;;;17.10;69.80;;;;;;4879182;29;20116;-79
2023/04/26 13:06:54;;;;;;;8.45;5.22;;;17.20;68.90;;;;;;4864968;29;20056;-79
2023/04/26 13:09:20;;;;;;;8.18;5.38;;;17.30;69.10;;;;;;4862602;29;20029;-78
2023/04/26 13:11:46;;;;;;;8.30;4.60;;;17.40;68.10;;;;;;4881165;29;20040;-79
2023/04/26 13:14:11;;;;;;;8.57;4.93;;;17.50;68.00;;;;;;4881239;29;20140;-79
2023/04/26 13:16:42;;;;;;;6.53;4.50;;;17.50;68.00;;;;;;4864610;29;20033;-79
2023/04/26 13:19:09;;;;;;;7.90;4.68;;;17.60;68.10;;;;;;4863504;29;20025;-78
2023/04/26 13:21:35;;;;;;;7.13;4.70;;;17.70;67.40;;;;;;4879698;29;20026;-78
2023/04/26 13:24:00;;;;;;;7.15;5.00;;;17.70;67.20;;;;;;4864010;29;20044;-79
2023/04/26 13:26:26;;;;;;;8.68;5.38;;;17.70;67.20;;;;;;4884785;29;20545;-78
2023/04/26 13:28:52;;;;;;;6.63;4.75;;;17.70;66.50;;;;;;4884913;29;20070;-79
2023/04/26 13:31:18;;;;;;;7.13;4.57;;;17.60;66.60;;;;;;4882496;29;20045;-78
2023/04/26 13:33:46;;;;;;;6.50;4.05;;;17.60;67.40;;;;;;4866868;29;20036;-78
2023/04/26 13:36:11;;;;;;;7.80;4.05;;;17.50;67.30;;;;;;4867228;29;20425;-79
2023/04/26 13:38:37;;;;;;;5.75;4.13;;;17.40;67.20;;;;;;4884161;29;20037;-79
2023/04/26 13:41:03;;;;;;;5.95;3.83;;;17.40;67.70;;;;;;4884789;29;20021;-79
2023/04/26 13:43:28;;;;;;;8.07;4.80;;;17.30;67.30;;;;;;4867441;29;20036;-79
2023/04/26 13:45:54;;;;;;;6.45;4.10;;;17.20;67.70;;;;;;4867003;29;20575;-79
2023/04/26 13:48:20;;;;;;;8.20;5.38;;;17.20;68.10;;;;;;4882126;29;20108;-79
2023/04/26 13:50:45;;;;;;;6.25;4.38;;;17.20;67.60;;;;;;4867258;29;20066;-79
2023/04/26 13:53:11;;;;;;;7.97;4.47;;;17.20;68.00;;;;;;4866510;29;20033;-79
2023/04/26 13:55:37;;;;;;;10.43;4.90;;;17.20;68.70;;;;;;4866760;29;20032;-79
2023/04/26 13:58:02;;;;;;;7.90;5.05;;;17.30;68.80;;;;;;4881927;29;20395;-79
2023/04/26 14:00:28;;;;;;;7.32;4.93;;;17.40;68.10;;;;;;4867144;29;20021;-79
2023/04/26 14:02:54;;;;;;;5.95;3.60;;;17.60;67.70;;;;;;4885168;29;20040;-79
2023/04/26 14:05:19;;;;;;;6.85;4.50;;;17.80;67.50;;;;;;4879202;29;20029;-79
2023/04/26 14:07:45;;;;;;;6.57;3.90;;;18.00;67.20;;;;;;4883824;29;20496;-79
2023/04/26 14:10:11;;;;;;;6.82;3.97;;;18.20;66.90;;;;;;4867048;29;20044;-79
2023/04/26 14:12:36;;;;;;;5.28;3.97;;;18.40;66.00;;;;;;4889022;29;20040;-79
2023/04/26 14:15:04;;;;;;;5.50;3.88;;;18.40;64.90;;;;;;4881403;29;20032;-79
2023/04/26 14:17:31;;;;;;;7.18;4.00;;;18.50;65.50;;;;;;4866660;29;20059;-79
2023/04/26 14:19:57;;;;;;;7.75;3.78;;;18.40;65.50;;;;;;4883543;29;20390;-79
2023/04/26 14:22:23;;;;;;;7.43;3.83;;;18.30;65.30;;;;;;4866685;29;20111;-79
2023/04/26 14:24:48;;;;;;;6.45;3.83;;;18.30;65.70;;;;;;4884737;29;20021;-79
2023/04/26 14:27:14;;;;;;;6.32;4.28;;;18.30;65.70;;;;;;4882506;29;20041;-78
2023/04/26 14:29:40;;;;;;;6.07;4.13;;;18.20;66.20;;;;;;4881289;29;20080;-78
2023/04/26 14:32:06;;;;;;;7.40;4.35;;;18.30;66.40;;;;;;4877066;29;20053;-78
2023/04/26 14:34:34;;;;;;;8.80;4.35;;;18.10;66.70;;;;;;4882096;29;20029;-78
2023/04/26 14:37:02;;;;;;;9.57;5.20;;;18.10;66.70;;;;;;4879354;29;20060;-78
2023/04/26 14:39:28;;;;;;;5.45;4.28;;;17.80;66.30;;;;;;4885106;29;20024;-79
2023/04/26 14:41:55;;;;;;;8.98;4.65;;;17.80;67.10;;;;;;4882158;29;20036;-79
2023/04/26 14:44:24;;;;;;;7.25;4.57;;;17.80;67.00;;;;;;4881434;29;20028;-79
2023/04/26 14:46:51;;;;;;;6.90;4.93;;;17.70;67.00;;;;;;4882189;29;20131;-79
2023/04/26 14:49:17;;;;;;;7.72;4.55;;;17.70;67.60;;;;;;4882995;29;20025;-79
2023/04/26 14:51:42;;;;;;;7.15;4.88;;;17.70;67.80;;;;;;4881242;29;20092;-79
2023/04/26 14:54:08;;;;;;;9.52;5.25;;;17.80;67.40;;;;;;4881122;29;20032;-78
2023/04/26 14:56:35;;;;;;;8.98;5.30;;;17.90;67.40;;;;;;4880992;29;20063;-78
2023/04/26 14:59:02;;;;;;;8.10;5.03;;;18.00;66.30;;;;;;4879532;29;20485;-79
2023/04/26 15:01:28;;;;;;;7.50;4.82;;;18.20;66.20;;;;;;4880194;29;20036;-79
2023/04/26 15:03:54;;;;;;;5.78;4.32;;;18.20;65.80;;;;;;4881557;29;20209;-79
2023/04/26 15:06:20;;;;;;;5.97;4.90;;;18.30;65.10;;;;;;4881114;29;20032;-78
2023/04/26 15:08:46;;;;;;;6.78;4.43;;;18.20;65.20;;;;;;4881350;29;20029;-78
2023/04/26 15:11:12;;;;;;;7.97;4.10;;;18.20;65.70;;;;;;4881092;29;20033;-79
2023/04/26 15:13:37;;;;;;;8.27;4.60;;;18.30;65.90;;;;;;4880035;29;20057;-78
2023/04/26 15:16:04;;;;;;;8.20;4.90;;;18.40;65.50;;;;;;4881741;29;20115;-79
2023/04/26 15:18:30;;;;;;;9.10;4.28;;;18.40;65.20;;;;;;4881405;29;20483;-79
2023/04/26 15:20:56;;;;;;;7.40;4.10;;;18.30;65.70;;;;;;4881132;29;20028;-79
2023/04/26 15:23:22;;;;;;;7.40;4.45;;;18.40;65.60;;;;;;4880467;29;20116;-78
2023/04/26 15:25:47;;;;;;;5.57;3.72;;;18.30;65.70;;;;;;4878210;29;20527;-78
2023/04/26 15:28:13;;;;;;;8.45;4.95;;;18.30;66.20;;;;;;4879644;29;20037;-78
2023/04/26 15:30:39;;;;;;;7.72;4.38;;;18.30;66.20;;;;;;4880868;29;20104;-78
2023/04/26 15:33:06;;;;;;;6.85;4.25;;;18.30;65.90;;;;;;4865758;29;20040;-78
2023/04/26 15:35:32;;;;;;;8.90;4.10;;;18.30;66.30;;;;;;4882518;29;20066;-79
2023/04/26 15:37:58;;;;;;;6.18;4.00;;;18.20;66.30;;;;;;4861956;29;20048;-78
2023/04/26 15:40:23;;;;;;;9.02;5.55;;;18.20;66.40;;;;;;4882714;29;20492;-78
2023/04/26 15:42:50;;;;;;;7.47;4.70;;;18.10;66.60;;;;;;4882737;29;20032;-79
2023/04/26 15:45:17;;;;;;;8.52;4.80;;;18.30;66.60;;;;;;4879884;29;20025;-78
2023/04/26 15:47:42;;;;;;;6.35;4.45;;;18.40;66.40;;;;;;4881251;29;20036;-78
2023/04/26 15:50:09;;;;;;;5.72;3.75;;;18.40;66.10;;;;;;4882703;29;20025;-78
2023/04/26 15:52:35;;;;;;;6.80;4.78;;;18.30;66.40;;;;;;4880968;29;20381;-78
2023/04/26 15:55:02;;;;;;;5.88;4.00;;;18.30;66.80;;;;;;4882061;29;20025;-78
2023/04/26 15:57:28;;;;;;;5.22;3.90;;;18.20;66.60;;;;;;4865446;29;20060;-79
2023/04/26 15:59:55;;;;;;;7.35;4.65;;;18.10;66.80;;;;;;4882104;29;20036;-78
2023/04/26 16:02:21;;;;;;;7.22;4.60;;;18.00;67.30;;;;;;4876676;29;20021;-78
2023/04/26 16:04:47;;;;;;;6.00;4.43;;;17.90;67.50;;;;;;4864647;29;20147;-78
2023/04/26 16:07:13;;;;;;;7.93;4.60;;;17.90;67.20;;;;;;4868932;29;20048;-77
2023/04/26 16:09:39;;;;;;;8.57;4.38;;;17.90;67.30;;;;;;4864011;29;20077;-78
2023/04/26 16:12:05;;;;;;;5.90;4.20;;;18.00;67.60;;;;;;4881587;29;20043;-78
2023/04/26 16:14:34;;;;;;;7.03;4.70;;;18.10;67.50;;;;;;4880260;29;20029;-78
2023/04/26 16:17:00;;;;;;;6.82;4.78;;;18.10;67.60;;;;;;4867201;29;20116;-78
2023/04/26 16:19:26;;;;;;;7.57;4.75;;;18.00;67.60;;;;;;4881781;29;20059;-77
2023/04/26 16:21:52;;;;;;;8.77;5.20;;;18.00;67.60;;;;;;4864214;29;20034;-78
2023/04/26 16:24:19;;;;;;;6.55;5.15;;;17.90;67.80;;;;;;4863574;29;20025;-74
2023/04/26 16:26:45;;;;;;;6.78;4.68;;;17.70;68.20;;;;;;4861525;29;20044;-79
2023/04/26 16:29:12;;;;;;;6.43;4.50;;;17.70;68.60;;;;;;4878897;29;20026;-79
2023/04/26 16:31:37;;;;;;;7.10;4.72;;;17.70;68.60;;;;;;4870986;29;20141;-78
2023/04/26 16:34:03;;;;;;;6.15;4.55;;;17.70;68.40;;;;;;4880681;29;20161;-78
2023/04/26 16:36:29;;;;;;;7.63;4.93;;;17.80;68.40;;;;;;4879776;29;20739;-78
2023/04/26 16:38:55;;;;;;;7.78;4.55;;;17.70;68.30;;;;;;4881315;29;20039;-78
2023/04/26 16:41:22;;;;;;;5.75;3.83;;;17.60;68.60;;;;;;4873610;29;20066;-79
2023/04/26 16:43:48;;;;;;;6.68;4.65;;;17.70;68.90;;;;;;4876729;29;20116;-79
2023/04/26 16:46:13;;;;;;;7.75;4.25;;;17.70;68.60;;;;;;4876725;29;20112;-78
2023/04/26 16:48:39;;;;;;;6.50;4.40;;;17.70;68.90;;;;;;4879941;29;20068;-79
2023/04/26 16:51:06;;;;;;;9.10;5.18;;;17.70;69.20;;;;;;4880924;29;20112;-79
2023/04/26 16:53:32;;;;;;;6.40;4.43;;;17.70;69.10;;;;;;4879351;29;20053;-78
2023/04/26 16:55:58;;;;;;;8.00;4.50;;;17.70;69.20;;;;;;4878126;29;20029;-78
2023/04/26 16:58:24;;;;;;;9.05;4.45;;;17.70;69.20;;;;;;4876838;29;20040;-82
2023/04/26 17:00:50;;;;;;;8.45;4.82;;;17.70;69.00;;;;;;4884278;29;20021;-77
2023/04/26 17:03:16;;;;;;;7.70;4.68;;;17.70;69.10;;;;;;4881623;29;20053;-76
2023/04/26 17:05:45;;;;;;;7.80;5.35;;;17.80;69.00;;;;;;4880821;29;20028;-78
2023/04/26 17:08:12;;;;;;;8.43;5.27;;;17.70;68.90;;;;;;4883472;29;20076;-76
2023/04/26 17:10:38;;;;;;;8.20;5.15;;;17.70;69.00;;;;;;4884446;29;20037;-77
2023/04/26 17:13:06;;;;;;;5.57;4.35;;;17.80;69.20;;;;;;4883166;29;20496;-78
2023/04/26 17:15:32;;;;;;;8.82;5.70;;;17.80;69.20;;;;;;4885993;29;20120;-79